sensor_id;sensor_type;location;lat;lon;timestamp;P1;durP1;ratioP1;P2;durP2;ratioP2
11046;SDS011;5576;50.008;10.596;2023-03-02T00:00:54;20.65;;;17.60;;
11046;SDS011;5576;50.008;10.596;2023-03-02T00:03:24;20.48;;;17.17;;
11046;SDS011;5576;50.008;10.596;2023-03-02T00:05:50;20.15;;;17.48;;
11046;SDS011;5576;50.008;10.596;2023-03-02T00:08:18;19.75;;;16.23;;
11046;SDS011;5576;50.008;10.596;2023-03-02T00:10:44;20.63;;;17.13;;
11046;SDS011;5576;50.008;10.596;2023-03-02T00:13:10;21.00;;;17.58;;
11046;SDS011;5576;50.008;10.596;2023-03-02T00:15:37;20.60;;;17.20;;
11046;SDS011;5576;50.008;10.596;2023-03-02T00:18:03;18.83;;;16.48;;
11046;SDS011;5576;50.008;10.596;2023-03-02T00:20:29;22.20;;;17.10;;
11046;SDS011;5576;50.008;10.596;2023-03-02T00:22:54;20.38;;;17.25;;
11046;SDS011;5576;50.008;10.596;2023-03-02T00:25:20;20.03;;;16.93;;
11046;SDS011;5576;50.008;10.596;2023-03-02T00:27:46;19.55;;;17.45;;
11046;SDS011;5576;50.008;10.596;2023-03-02T00:30:12;19.40;;;16.93;;
11046;SDS011;5576;50.008;10.596;2023-03-02T00:32:39;20.83;;;17.33;;
11046;SDS011;5576;50.008;10.596;2023-03-02T00:35:05;19.87;;;16.70;;
11046;SDS011;5576;50.008;10.596;2023-03-02T00:37:32;19.30;;;16.45;;
11046;SDS011;5576;50.008;10.596;2023-03-02T00:39:59;22.23;;;17.92;;
11046;SDS011;5576;50.008;10.596;2023-03-02T00:42:25;20.77;;;17.57;;
11046;SDS011;5576;50.008;10.596;2023-03-02T00:44:51;19.63;;;17.08;;
11046;SDS011;5576;50.008;10.596;2023-03-02T00:47:17;19.10;;;16.80;;
11046;SDS011;5576;50.008;10.596;2023-03-02T00:49:43;19.52;;;16.70;;
11046;SDS011;5576;50.008;10.596;2023-03-02T00:52:13;18.73;;;16.42;;
11046;SDS011;5576;50.008;10.596;2023-03-02T00:54:39;22.13;;;18.60;;
11046;SDS011;5576;50.008;10.596;2023-03-02T00:57:05;22.00;;;18.73;;
11046;SDS011;5576;50.008;10.596;2023-03-02T00:59:31;24.48;;;21.77;;
11046;SDS011;5576;50.008;10.596;2023-03-02T01:02:04;24.10;;;20.38;;
11046;SDS011;5576;50.008;10.596;2023-03-02T01:04:35;22.80;;;18.70;;
11046;SDS011;5576;50.008;10.596;2023-03-02T01:07:05;20.43;;;17.23;;
11046;SDS011;5576;50.008;10.596;2023-03-02T01:09:35;20.10;;;16.77;;
11046;SDS011;5576;50.008;10.596;2023-03-02T01:12:02;20.48;;;16.95;;
11046;SDS011;5576;50.008;10.596;2023-03-02T01:14:29;19.73;;;16.83;;
11046;SDS011;5576;50.008;10.596;2023-03-02T01:16:55;19.80;;;16.90;;
11046;SDS011;5576;50.008;10.596;2023-03-02T01:19:21;20.35;;;17.50;;
11046;SDS011;5576;50.008;10.596;2023-03-02T01:21:47;19.30;;;16.90;;
11046;SDS011;5576;50.008;10.596;2023-03-02T01:24:13;20.27;;;17.67;;
11046;SDS011;5576;50.008;10.596;2023-03-02T01:26:39;21.15;;;18.20;;
11046;SDS011;5576;50.008;10.596;2023-03-02T01:29:05;21.27;;;18.23;;
11046;SDS011;5576;50.008;10.596;2023-03-02T01:31:31;20.05;;;17.13;;
11046;SDS011;5576;50.008;10.596;2023-03-02T01:33:57;22.08;;;17.92;;
11046;SDS011;5576;50.008;10.596;2023-03-02T01:36:22;20.60;;;17.37;;
11046;SDS011;5576;50.008;10.596;2023-03-02T01:38:48;19.50;;;17.17;;
11046;SDS011;5576;50.008;10.596;2023-03-02T01:41:15;20.42;;;17.35;;
11046;SDS011;5576;50.008;10.596;2023-03-02T01:43:41;20.20;;;16.92;;
11046;SDS011;5576;50.008;10.596;2023-03-02T01:46:15;20.25;;;16.83;;
11046;SDS011;5576;50.008;10.596;2023-03-02T01:48:51;20.27;;;17.23;;
11046;SDS011;5576;50.008;10.596;2023-03-02T01:51:31;20.88;;;18.15;;
11046;SDS011;5576;50.008;10.596;2023-03-02T01:54:03;20.73;;;17.38;;
11046;SDS011;5576;50.008;10.596;2023-03-02T01:56:36;20.23;;;17.40;;
11046;SDS011;5576;50.008;10.596;2023-03-02T01:59:05;20.57;;;17.53;;
11046;SDS011;5576;50.008;10.596;2023-03-02T02:01:34;20.40;;;17.25;;
11046;SDS011;5576;50.008;10.596;2023-03-02T02:04:02;21.30;;;18.00;;
11046;SDS011;5576;50.008;10.596;2023-03-02T02:06:30;21.10;;;17.23;;
11046;SDS011;5576;50.008;10.596;2023-03-02T02:08:57;21.65;;;18.42;;
11046;SDS011;5576;50.008;10.596;2023-03-02T02:11:25;20.85;;;18.15;;
11046;SDS011;5576;50.008;10.596;2023-03-02T02:13:52;21.80;;;18.60;;
11046;SDS011;5576;50.008;10.596;2023-03-02T02:16:21;20.98;;;17.50;;
11046;SDS011;5576;50.008;10.596;2023-03-02T02:18:47;21.98;;;18.38;;
11046;SDS011;5576;50.008;10.596;2023-03-02T02:21:13;22.57;;;17.93;;
11046;SDS011;5576;50.008;10.596;2023-03-02T02:26:14;22.15;;;18.55;;
11046;SDS011;5576;50.008;10.596;2023-03-02T02:28:50;21.95;;;17.98;;
11046;SDS011;5576;50.008;10.596;2023-03-02T02:34:05;23.42;;;19.05;;
11046;SDS011;5576;50.008;10.596;2023-03-02T02:36:40;20.80;;;18.08;;
11046;SDS011;5576;50.008;10.596;2023-03-02T02:39:21;20.25;;;17.98;;
11046;SDS011;5576;50.008;10.596;2023-03-02T02:41:53;21.10;;;17.58;;
11046;SDS011;5576;50.008;10.596;2023-03-02T02:44:23;20.15;;;17.13;;
11046;SDS011;5576;50.008;10.596;2023-03-02T02:46:49;20.08;;;17.05;;
11046;SDS011;5576;50.008;10.596;2023-03-02T02:49:32;19.97;;;17.30;;
11046;SDS011;5576;50.008;10.596;2023-03-02T02:52:00;20.35;;;17.27;;
11046;SDS011;5576;50.008;10.596;2023-03-02T02:54:28;19.77;;;17.02;;
11046;SDS011;5576;50.008;10.596;2023-03-02T02:56:55;20.20;;;17.67;;
11046;SDS011;5576;50.008;10.596;2023-03-02T02:59:26;19.60;;;17.00;;
11046;SDS011;5576;50.008;10.596;2023-03-02T03:01:58;20.00;;;16.70;;
11046;SDS011;5576;50.008;10.596;2023-03-02T03:04:27;19.77;;;17.50;;
11046;SDS011;5576;50.008;10.596;2023-03-02T03:06:57;20.00;;;17.20;;
11046;SDS011;5576;50.008;10.596;2023-03-02T03:09:25;20.40;;;17.00;;
11046;SDS011;5576;50.008;10.596;2023-03-02T03:11:53;21.15;;;17.58;;
11046;SDS011;5576;50.008;10.596;2023-03-02T03:14:26;20.00;;;17.10;;
11046;SDS011;5576;50.008;10.596;2023-03-02T03:16:55;19.83;;;17.00;;
11046;SDS011;5576;50.008;10.596;2023-03-02T03:19:24;19.85;;;17.50;;
11046;SDS011;5576;50.008;10.596;2023-03-02T03:21:53;22.03;;;18.93;;
11046;SDS011;5576;50.008;10.596;2023-03-02T03:24:22;23.67;;;19.53;;
11046;SDS011;5576;50.008;10.596;2023-03-02T03:26:48;21.85;;;18.58;;
11046;SDS011;5576;50.008;10.596;2023-03-02T03:29:15;23.52;;;19.77;;
11046;SDS011;5576;50.008;10.596;2023-03-02T03:31:42;21.98;;;18.67;;
11046;SDS011;5576;50.008;10.596;2023-03-02T03:34:10;24.27;;;19.42;;
11046;SDS011;5576;50.008;10.596;2023-03-02T03:36:36;23.10;;;18.70;;
11046;SDS011;5576;50.008;10.596;2023-03-02T03:39:03;22.65;;;19.55;;
11046;SDS011;5576;50.008;10.596;2023-03-02T03:41:31;30.53;;;25.53;;
11046;SDS011;5576;50.008;10.596;2023-03-02T03:43:57;27.70;;;23.33;;
11046;SDS011;5576;50.008;10.596;2023-03-02T03:46:24;26.88;;;23.05;;
11046;SDS011;5576;50.008;10.596;2023-03-02T03:48:50;27.85;;;23.98;;
11046;SDS011;5576;50.008;10.596;2023-03-02T03:51:16;26.67;;;21.73;;
11046;SDS011;5576;50.008;10.596;2023-03-02T03:53:44;24.47;;;20.90;;
11046;SDS011;5576;50.008;10.596;2023-03-02T03:56:10;24.13;;;20.30;;
11046;SDS011;5576;50.008;10.596;2023-03-02T03:58:36;52.72;;;40.80;;
11046;SDS011;5576;50.008;10.596;2023-03-02T04:01:03;41.50;;;33.40;;
11046;SDS011;5576;50.008;10.596;2023-03-02T04:03:29;32.70;;;26.80;;
11046;SDS011;5576;50.008;10.596;2023-03-02T04:05:55;26.05;;;21.52;;
11046;SDS011;5576;50.008;10.596;2023-03-02T04:08:21;25.88;;;21.83;;
11046;SDS011;5576;50.008;10.596;2023-03-02T04:10:47;24.85;;;20.85;;
11046;SDS011;5576;50.008;10.596;2023-03-02T04:13:13;23.77;;;18.98;;
11046;SDS011;5576;50.008;10.596;2023-03-02T04:15:39;21.33;;;18.07;;
11046;SDS011;5576;50.008;10.596;2023-03-02T04:18:06;20.67;;;17.93;;
11046;SDS011;5576;50.008;10.596;2023-03-02T04:20:34;21.23;;;18.17;;
11046;SDS011;5576;50.008;10.596;2023-03-02T04:23:00;20.95;;;17.40;;
11046;SDS011;5576;50.008;10.596;2023-03-02T04:25:27;20.13;;;17.48;;
11046;SDS011;5576;50.008;10.596;2023-03-02T04:28:00;21.55;;;18.23;;
11046;SDS011;5576;50.008;10.596;2023-03-02T04:30:30;18.55;;;16.52;;
11046;SDS011;5576;50.008;10.596;2023-03-02T04:32:58;20.50;;;17.33;;
11046;SDS011;5576;50.008;10.596;2023-03-02T04:35:26;20.93;;;17.37;;
11046;SDS011;5576;50.008;10.596;2023-03-02T04:37:52;19.25;;;16.52;;
11046;SDS011;5576;50.008;10.596;2023-03-02T04:40:18;19.33;;;16.83;;
11046;SDS011;5576;50.008;10.596;2023-03-02T04:42:44;20.95;;;17.05;;
11046;SDS011;5576;50.008;10.596;2023-03-02T04:45:10;19.58;;;16.73;;
11046;SDS011;5576;50.008;10.596;2023-03-02T04:47:37;18.42;;;16.23;;
11046;SDS011;5576;50.008;10.596;2023-03-02T04:50:02;19.83;;;16.85;;
11046;SDS011;5576;50.008;10.596;2023-03-02T04:52:28;22.13;;;18.52;;
11046;SDS011;5576;50.008;10.596;2023-03-02T04:54:54;23.60;;;20.08;;
11046;SDS011;5576;50.008;10.596;2023-03-02T04:57:20;22.17;;;18.93;;
11046;SDS011;5576;50.008;10.596;2023-03-02T04:59:46;21.38;;;17.70;;
11046;SDS011;5576;50.008;10.596;2023-03-02T05:02:12;21.27;;;17.77;;
11046;SDS011;5576;50.008;10.596;2023-03-02T05:04:37;20.33;;;17.33;;
11046;SDS011;5576;50.008;10.596;2023-03-02T05:07:04;19.33;;;16.52;;
11046;SDS011;5576;50.008;10.596;2023-03-02T05:09:30;20.05;;;16.67;;
11046;SDS011;5576;50.008;10.596;2023-03-02T05:11:57;21.63;;;17.63;;
11046;SDS011;5576;50.008;10.596;2023-03-02T05:14:25;20.92;;;17.63;;
11046;SDS011;5576;50.008;10.596;2023-03-02T05:16:51;20.65;;;17.30;;
11046;SDS011;5576;50.008;10.596;2023-03-02T05:19:17;21.40;;;17.85;;
11046;SDS011;5576;50.008;10.596;2023-03-02T05:21:43;20.73;;;17.35;;
11046;SDS011;5576;50.008;10.596;2023-03-02T05:24:11;21.60;;;18.00;;
11046;SDS011;5576;50.008;10.596;2023-03-02T05:26:38;22.10;;;18.03;;
11046;SDS011;5576;50.008;10.596;2023-03-02T05:29:03;20.88;;;17.63;;
11046;SDS011;5576;50.008;10.596;2023-03-02T05:31:31;20.17;;;17.40;;
11046;SDS011;5576;50.008;10.596;2023-03-02T05:34:00;22.25;;;18.92;;
11046;SDS011;5576;50.008;10.596;2023-03-02T05:36:27;20.58;;;17.80;;
11046;SDS011;5576;50.008;10.596;2023-03-02T05:38:52;21.45;;;17.95;;
11046;SDS011;5576;50.008;10.596;2023-03-02T05:41:18;20.77;;;18.20;;
11046;SDS011;5576;50.008;10.596;2023-03-02T05:43:44;20.92;;;17.70;;
11046;SDS011;5576;50.008;10.596;2023-03-02T05:46:10;21.15;;;17.52;;
11046;SDS011;5576;50.008;10.596;2023-03-02T05:48:35;24.20;;;18.17;;
11046;SDS011;5576;50.008;10.596;2023-03-02T05:51:01;20.50;;;17.63;;
11046;SDS011;5576;50.008;10.596;2023-03-02T05:53:27;23.85;;;18.90;;
11046;SDS011;5576;50.008;10.596;2023-03-02T05:55:53;20.30;;;17.50;;
11046;SDS011;5576;50.008;10.596;2023-03-02T05:58:19;21.70;;;18.48;;
11046;SDS011;5576;50.008;10.596;2023-03-02T06:00:45;20.23;;;17.10;;
11046;SDS011;5576;50.008;10.596;2023-03-02T06:03:12;20.40;;;17.80;;
11046;SDS011;5576;50.008;10.596;2023-03-02T06:05:38;21.70;;;18.90;;
11046;SDS011;5576;50.008;10.596;2023-03-02T06:08:04;19.20;;;16.75;;
11046;SDS011;5576;50.008;10.596;2023-03-02T06:10:30;20.30;;;17.27;;
11046;SDS011;5576;50.008;10.596;2023-03-02T06:12:56;20.08;;;17.55;;
11046;SDS011;5576;50.008;10.596;2023-03-02T06:15:22;20.60;;;18.40;;
11046;SDS011;5576;50.008;10.596;2023-03-02T06:17:48;21.52;;;19.20;;
11046;SDS011;5576;50.008;10.596;2023-03-02T06:20:14;22.13;;;18.67;;
11046;SDS011;5576;50.008;10.596;2023-03-02T06:22:41;22.95;;;18.35;;
11046;SDS011;5576;50.008;10.596;2023-03-02T06:25:11;22.27;;;18.63;;
11046;SDS011;5576;50.008;10.596;2023-03-02T06:27:39;21.87;;;18.23;;
11046;SDS011;5576;50.008;10.596;2023-03-02T06:30:06;23.17;;;19.02;;
11046;SDS011;5576;50.008;10.596;2023-03-02T06:32:33;25.20;;;19.70;;
11046;SDS011;5576;50.008;10.596;2023-03-02T06:35:00;23.73;;;19.77;;
11046;SDS011;5576;50.008;10.596;2023-03-02T06:37:27;22.98;;;19.75;;
11046;SDS011;5576;50.008;10.596;2023-03-02T06:39:54;23.80;;;19.90;;
11046;SDS011;5576;50.008;10.596;2023-03-02T06:42:20;26.65;;;20.63;;
11046;SDS011;5576;50.008;10.596;2023-03-02T06:44:46;24.33;;;20.13;;
11046;SDS011;5576;50.008;10.596;2023-03-02T06:47:12;24.30;;;19.50;;
11046;SDS011;5576;50.008;10.596;2023-03-02T06:49:38;24.88;;;20.48;;
11046;SDS011;5576;50.008;10.596;2023-03-02T06:52:04;25.10;;;20.23;;
11046;SDS011;5576;50.008;10.596;2023-03-02T06:54:31;28.75;;;22.63;;
11046;SDS011;5576;50.008;10.596;2023-03-02T06:56:57;34.07;;;22.97;;
11046;SDS011;5576;50.008;10.596;2023-03-02T06:59:23;31.10;;;23.90;;
11046;SDS011;5576;50.008;10.596;2023-03-02T07:01:49;31.20;;;23.85;;
11046;SDS011;5576;50.008;10.596;2023-03-02T07:04:15;31.23;;;23.65;;
11046;SDS011;5576;50.008;10.596;2023-03-02T07:06:41;30.90;;;23.67;;
11046;SDS011;5576;50.008;10.596;2023-03-02T07:09:07;31.03;;;23.20;;
11046;SDS011;5576;50.008;10.596;2023-03-02T07:11:33;32.55;;;23.88;;
11046;SDS011;5576;50.008;10.596;2023-03-02T07:13:59;31.02;;;23.50;;
11046;SDS011;5576;50.008;10.596;2023-03-02T07:16:25;30.55;;;22.83;;
11046;SDS011;5576;50.008;10.596;2023-03-02T07:18:51;27.87;;;21.60;;
11046;SDS011;5576;50.008;10.596;2023-03-02T07:21:17;23.63;;;18.67;;
11046;SDS011;5576;50.008;10.596;2023-03-02T07:23:43;22.40;;;17.63;;
11046;SDS011;5576;50.008;10.596;2023-03-02T07:26:08;21.95;;;18.17;;
11046;SDS011;5576;50.008;10.596;2023-03-02T07:28:35;21.15;;;17.25;;
11046;SDS011;5576;50.008;10.596;2023-03-02T07:31:03;20.45;;;16.35;;
11046;SDS011;5576;50.008;10.596;2023-03-02T07:33:30;17.90;;;15.38;;
11046;SDS011;5576;50.008;10.596;2023-03-02T07:35:56;17.85;;;15.07;;
11046;SDS011;5576;50.008;10.596;2023-03-02T07:38:22;16.17;;;13.73;;
11046;SDS011;5576;50.008;10.596;2023-03-02T07:40:48;15.73;;;13.50;;
11046;SDS011;5576;50.008;10.596;2023-03-02T07:43:14;15.70;;;13.18;;
11046;SDS011;5576;50.008;10.596;2023-03-02T07:45:39;15.68;;;13.15;;
11046;SDS011;5576;50.008;10.596;2023-03-02T07:48:05;15.73;;;13.13;;
11046;SDS011;5576;50.008;10.596;2023-03-02T07:50:31;15.35;;;13.52;;
11046;SDS011;5576;50.008;10.596;2023-03-02T07:52:57;15.82;;;12.88;;
11046;SDS011;5576;50.008;10.596;2023-03-02T07:55:23;15.25;;;13.45;;
11046;SDS011;5576;50.008;10.596;2023-03-02T07:57:49;16.70;;;13.95;;
11046;SDS011;5576;50.008;10.596;2023-03-02T08:00:15;16.53;;;13.57;;
11046;SDS011;5576;50.008;10.596;2023-03-02T08:02:42;16.20;;;13.18;;
11046;SDS011;5576;50.008;10.596;2023-03-02T08:05:08;15.52;;;13.02;;
11046;SDS011;5576;50.008;10.596;2023-03-02T08:07:35;16.92;;;13.57;;
11046;SDS011;5576;50.008;10.596;2023-03-02T08:10:01;15.83;;;12.80;;
11046;SDS011;5576;50.008;10.596;2023-03-02T08:12:27;17.05;;;14.05;;
11046;SDS011;5576;50.008;10.596;2023-03-02T08:14:54;17.55;;;13.90;;
11046;SDS011;5576;50.008;10.596;2023-03-02T08:17:20;16.17;;;13.70;;
11046;SDS011;5576;50.008;10.596;2023-03-02T08:19:46;16.58;;;13.55;;
11046;SDS011;5576;50.008;10.596;2023-03-02T08:22:12;17.25;;;13.60;;
11046;SDS011;5576;50.008;10.596;2023-03-02T08:24:38;18.75;;;15.05;;
11046;SDS011;5576;50.008;10.596;2023-03-02T08:27:06;17.30;;;13.60;;
11046;SDS011;5576;50.008;10.596;2023-03-02T08:29:32;17.50;;;14.77;;
11046;SDS011;5576;50.008;10.596;2023-03-02T08:31:58;23.08;;;17.90;;
11046;SDS011;5576;50.008;10.596;2023-03-02T08:34:24;24.80;;;18.50;;
11046;SDS011;5576;50.008;10.596;2023-03-02T08:36:50;19.23;;;15.93;;
11046;SDS011;5576;50.008;10.596;2023-03-02T08:39:17;23.30;;;17.60;;
11046;SDS011;5576;50.008;10.596;2023-03-02T08:41:43;21.20;;;15.93;;
11046;SDS011;5576;50.008;10.596;2023-03-02T08:44:08;17.55;;;14.05;;
11046;SDS011;5576;50.008;10.596;2023-03-02T08:46:34;17.58;;;14.45;;
11046;SDS011;5576;50.008;10.596;2023-03-02T08:49:00;22.80;;;16.43;;
11046;SDS011;5576;50.008;10.596;2023-03-02T08:51:26;15.88;;;12.80;;
11046;SDS011;5576;50.008;10.596;2023-03-02T08:53:53;17.97;;;13.13;;
11046;SDS011;5576;50.008;10.596;2023-03-02T08:56:29;14.20;;;12.30;;
11046;SDS011;5576;50.008;10.596;2023-03-02T08:58:58;16.73;;;12.82;;
11046;SDS011;5576;50.008;10.596;2023-03-02T09:01:28;15.57;;;12.63;;
11046;SDS011;5576;50.008;10.596;2023-03-02T09:03:55;15.18;;;11.43;;
11046;SDS011;5576;50.008;10.596;2023-03-02T09:06:24;15.32;;;11.93;;
11046;SDS011;5576;50.008;10.596;2023-03-02T09:08:50;13.65;;;10.98;;
11046;SDS011;5576;50.008;10.596;2023-03-02T09:11:16;16.13;;;13.23;;
11046;SDS011;5576;50.008;10.596;2023-03-02T09:13:41;13.45;;;11.20;;
11046;SDS011;5576;50.008;10.596;2023-03-02T09:16:07;16.70;;;12.77;;
11046;SDS011;5576;50.008;10.596;2023-03-02T09:18:34;15.45;;;11.52;;
11046;SDS011;5576;50.008;10.596;2023-03-02T09:21:00;15.52;;;11.88;;
11046;SDS011;5576;50.008;10.596;2023-03-02T09:23:27;14.02;;;11.00;;
11046;SDS011;5576;50.008;10.596;2023-03-02T09:25:53;14.83;;;10.93;;
11046;SDS011;5576;50.008;10.596;2023-03-02T09:28:20;12.23;;;10.43;;
11046;SDS011;5576;50.008;10.596;2023-03-02T09:30:49;13.65;;;10.63;;
11046;SDS011;5576;50.008;10.596;2023-03-02T09:33:17;15.38;;;11.45;;
11046;SDS011;5576;50.008;10.596;2023-03-02T09:35:44;14.05;;;11.00;;
11046;SDS011;5576;50.008;10.596;2023-03-02T09:38:11;12.98;;;10.70;;
11046;SDS011;5576;50.008;10.596;2023-03-02T09:40:46;14.50;;;10.97;;
11046;SDS011;5576;50.008;10.596;2023-03-02T09:46:22;12.18;;;10.18;;
11046;SDS011;5576;50.008;10.596;2023-03-02T09:51:38;15.80;;;10.93;;
11046;SDS011;5576;50.008;10.596;2023-03-02T09:56:36;13.00;;;10.52;;
11046;SDS011;5576;50.008;10.596;2023-03-02T09:59:25;12.93;;;10.32;;
11046;SDS011;5576;50.008;10.596;2023-03-02T10:01:56;14.05;;;10.98;;
11046;SDS011;5576;50.008;10.596;2023-03-02T10:04:28;13.98;;;10.63;;
11046;SDS011;5576;50.008;10.596;2023-03-02T10:06:58;13.50;;;10.38;;
11046;SDS011;5576;50.008;10.596;2023-03-02T10:09:34;13.63;;;10.55;;
11046;SDS011;5576;50.008;10.596;2023-03-02T10:12:02;14.57;;;10.68;;
11046;SDS011;5576;50.008;10.596;2023-03-02T10:17:29;12.23;;;9.43;;
11046;SDS011;5576;50.008;10.596;2023-03-02T10:20:02;13.60;;;9.73;;
11046;SDS011;5576;50.008;10.596;2023-03-02T10:22:34;14.05;;;10.10;;
11046;SDS011;5576;50.008;10.596;2023-03-02T10:25:11;12.40;;;9.27;;
11046;SDS011;5576;50.008;10.596;2023-03-02T10:27:42;14.68;;;9.05;;
11046;SDS011;5576;50.008;10.596;2023-03-02T10:30:30;12.23;;;8.80;;
11046;SDS011;5576;50.008;10.596;2023-03-02T10:33:03;13.90;;;9.68;;
11046;SDS011;5576;50.008;10.596;2023-03-02T10:35:37;14.00;;;9.20;;
11046;SDS011;5576;50.008;10.596;2023-03-02T10:38:11;12.57;;;9.00;;
11046;SDS011;5576;50.008;10.596;2023-03-02T10:43:13;12.63;;;8.90;;
11046;SDS011;5576;50.008;10.596;2023-03-02T10:45:42;15.82;;;9.00;;
11046;SDS011;5576;50.008;10.596;2023-03-02T10:48:09;16.35;;;9.57;;
11046;SDS011;5576;50.008;10.596;2023-03-02T10:50:36;12.07;;;8.57;;
11046;SDS011;5576;50.008;10.596;2023-03-02T10:53:05;13.25;;;8.55;;
11046;SDS011;5576;50.008;10.596;2023-03-02T10:55:32;15.27;;;9.00;;
11046;SDS011;5576;50.008;10.596;2023-03-02T10:57:59;15.40;;;8.70;;
11046;SDS011;5576;50.008;10.596;2023-03-02T11:00:28;13.10;;;8.32;;
11046;SDS011;5576;50.008;10.596;2023-03-02T11:05:26;12.23;;;8.57;;
11046;SDS011;5576;50.008;10.596;2023-03-02T11:08:02;12.52;;;7.90;;
11046;SDS011;5576;50.008;10.596;2023-03-02T11:10:40;12.70;;;8.15;;
11046;SDS011;5576;50.008;10.596;2023-03-02T11:13:18;15.35;;;9.65;;
11046;SDS011;5576;50.008;10.596;2023-03-02T11:15:51;11.52;;;8.25;;
11046;SDS011;5576;50.008;10.596;2023-03-02T11:21:11;13.30;;;8.33;;
11046;SDS011;5576;50.008;10.596;2023-03-02T11:26:35;13.23;;;8.03;;
11046;SDS011;5576;50.008;10.596;2023-03-02T11:29:10;11.95;;;7.57;;
11046;SDS011;5576;50.008;10.596;2023-03-02T11:32:12;12.95;;;8.32;;
11046;SDS011;5576;50.008;10.596;2023-03-02T11:34:43;14.45;;;7.82;;
11046;SDS011;5576;50.008;10.596;2023-03-02T11:42:18;11.25;;;7.63;;
11046;SDS011;5576;50.008;10.596;2023-03-02T11:44:47;14.20;;;9.10;;
11046;SDS011;5576;50.008;10.596;2023-03-02T11:47:13;12.83;;;7.43;;
11046;SDS011;5576;50.008;10.596;2023-03-02T11:49:42;14.38;;;7.07;;
11046;SDS011;5576;50.008;10.596;2023-03-02T11:52:14;11.98;;;7.97;;
11046;SDS011;5576;50.008;10.596;2023-03-02T11:54:48;14.77;;;7.50;;
11046;SDS011;5576;50.008;10.596;2023-03-02T11:57:26;12.38;;;6.68;;
11046;SDS011;5576;50.008;10.596;2023-03-02T11:59:59;12.35;;;6.90;;
11046;SDS011;5576;50.008;10.596;2023-03-02T12:02:26;10.73;;;6.75;;
11046;SDS011;5576;50.008;10.596;2023-03-02T12:05:00;12.77;;;7.03;;
11046;SDS011;5576;50.008;10.596;2023-03-02T12:07:32;12.13;;;7.43;;
11046;SDS011;5576;50.008;10.596;2023-03-02T12:10:00;11.38;;;6.70;;
11046;SDS011;5576;50.008;10.596;2023-03-02T12:15:00;12.20;;;7.03;;
11046;SDS011;5576;50.008;10.596;2023-03-02T12:20:26;13.68;;;6.53;;
11046;SDS011;5576;50.008;10.596;2023-03-02T12:22:50;12.57;;;6.97;;
11046;SDS011;5576;50.008;10.596;2023-03-02T12:27:46;10.35;;;6.43;;
11046;SDS011;5576;50.008;10.596;2023-03-02T12:35:46;12.45;;;5.82;;
11046;SDS011;5576;50.008;10.596;2023-03-02T12:38:30;12.27;;;7.10;;
11046;SDS011;5576;50.008;10.596;2023-03-02T12:46:25;9.95;;;6.25;;
11046;SDS011;5576;50.008;10.596;2023-03-02T12:49:00;7.82;;;4.63;;
11046;SDS011;5576;50.008;10.596;2023-03-02T12:52:15;14.95;;;5.80;;
11046;SDS011;5576;50.008;10.596;2023-03-02T12:55:00;9.75;;;5.78;;
11046;SDS011;5576;50.008;10.596;2023-03-02T12:57:30;12.15;;;5.55;;
11046;SDS011;5576;50.008;10.596;2023-03-02T12:59:58;15.18;;;6.47;;
11046;SDS011;5576;50.008;10.596;2023-03-02T13:02:26;10.70;;;6.53;;
11046;SDS011;5576;50.008;10.596;2023-03-02T13:04:54;9.25;;;5.25;;
11046;SDS011;5576;50.008;10.596;2023-03-02T13:07:23;13.98;;;6.70;;
11046;SDS011;5576;50.008;10.596;2023-03-02T13:09:51;12.90;;;6.53;;
11046;SDS011;5576;50.008;10.596;2023-03-02T13:12:19;11.38;;;5.85;;
11046;SDS011;5576;50.008;10.596;2023-03-02T13:14:49;12.10;;;5.78;;
11046;SDS011;5576;50.008;10.596;2023-03-02T13:17:27;10.02;;;5.70;;
11046;SDS011;5576;50.008;10.596;2023-03-02T13:19:55;9.95;;;5.00;;
11046;SDS011;5576;50.008;10.596;2023-03-02T13:22:23;10.63;;;4.97;;
11046;SDS011;5576;50.008;10.596;2023-03-02T13:27:36;8.85;;;5.15;;
11046;SDS011;5576;50.008;10.596;2023-03-02T13:30:10;11.38;;;5.45;;
11046;SDS011;5576;50.008;10.596;2023-03-02T13:32:47;11.38;;;5.45;;
11046;SDS011;5576;50.008;10.596;2023-03-02T13:35:16;11.45;;;5.65;;
11046;SDS011;5576;50.008;10.596;2023-03-02T13:37:53;8.68;;;5.32;;
11046;SDS011;5576;50.008;10.596;2023-03-02T13:42:48;11.73;;;5.40;;
11046;SDS011;5576;50.008;10.596;2023-03-02T13:45:31;11.13;;;5.25;;
11046;SDS011;5576;50.008;10.596;2023-03-02T13:47:58;9.73;;;5.90;;
11046;SDS011;5576;50.008;10.596;2023-03-02T13:50:29;9.20;;;5.70;;
11046;SDS011;5576;50.008;10.596;2023-03-02T13:52:56;9.27;;;5.63;;
11046;SDS011;5576;50.008;10.596;2023-03-02T13:55:26;11.48;;;5.13;;
11046;SDS011;5576;50.008;10.596;2023-03-02T13:57:53;14.18;;;6.20;;
11046;SDS011;5576;50.008;10.596;2023-03-02T14:00:29;11.07;;;5.07;;
11046;SDS011;5576;50.008;10.596;2023-03-02T14:02:57;35.67;;;17.38;;
11046;SDS011;5576;50.008;10.596;2023-03-02T14:05:24;15.45;;;7.60;;
11046;SDS011;5576;50.008;10.596;2023-03-02T14:07:57;10.32;;;6.05;;
11046;SDS011;5576;50.008;10.596;2023-03-02T14:10:23;9.52;;;6.80;;
11046;SDS011;5576;50.008;10.596;2023-03-02T14:12:53;10.32;;;6.05;;
11046;SDS011;5576;50.008;10.596;2023-03-02T14:15:22;9.95;;;6.10;;
11046;SDS011;5576;50.008;10.596;2023-03-02T14:17:49;11.15;;;6.35;;
11046;SDS011;5576;50.008;10.596;2023-03-02T14:20:16;12.35;;;7.50;;
11046;SDS011;5576;50.008;10.596;2023-03-02T14:22:44;9.65;;;7.03;;
11046;SDS011;5576;50.008;10.596;2023-03-02T14:25:11;9.63;;;6.85;;
11046;SDS011;5576;50.008;10.596;2023-03-02T14:27:37;10.13;;;6.93;;
11046;SDS011;5576;50.008;10.596;2023-03-02T14:30:20;10.75;;;6.90;;
11046;SDS011;5576;50.008;10.596;2023-03-02T14:32:46;11.40;;;7.20;;
11046;SDS011;5576;50.008;10.596;2023-03-02T14:35:12;11.73;;;7.57;;
11046;SDS011;5576;50.008;10.596;2023-03-02T14:37:40;12.48;;;7.90;;
11046;SDS011;5576;50.008;10.596;2023-03-02T14:40:13;15.60;;;7.82;;
11046;SDS011;5576;50.008;10.596;2023-03-02T14:42:42;12.40;;;7.45;;
11046;SDS011;5576;50.008;10.596;2023-03-02T14:45:08;12.55;;;7.82;;
11046;SDS011;5576;50.008;10.596;2023-03-02T14:47:35;12.35;;;8.07;;
11046;SDS011;5576;50.008;10.596;2023-03-02T14:50:00;10.77;;;7.55;;
11046;SDS011;5576;50.008;10.596;2023-03-02T14:52:29;11.73;;;8.13;;
11046;SDS011;5576;50.008;10.596;2023-03-02T14:55:00;9.75;;;7.20;;
11046;SDS011;5576;50.008;10.596;2023-03-02T14:57:30;11.80;;;7.28;;
11046;SDS011;5576;50.008;10.596;2023-03-02T14:59:59;10.63;;;7.60;;
11046;SDS011;5576;50.008;10.596;2023-03-02T15:02:25;9.95;;;7.50;;
11046;SDS011;5576;50.008;10.596;2023-03-02T15:04:51;13.63;;;8.45;;
11046;SDS011;5576;50.008;10.596;2023-03-02T15:07:19;11.75;;;7.80;;
11046;SDS011;5576;50.008;10.596;2023-03-02T15:09:45;11.45;;;8.15;;
11046;SDS011;5576;50.008;10.596;2023-03-02T15:12:11;11.10;;;7.30;;
11046;SDS011;5576;50.008;10.596;2023-03-02T15:14:37;10.20;;;7.45;;
11046;SDS011;5576;50.008;10.596;2023-03-02T15:17:03;12.57;;;7.78;;
11046;SDS011;5576;50.008;10.596;2023-03-02T15:19:29;12.40;;;7.82;;
11046;SDS011;5576;50.008;10.596;2023-03-02T15:21:55;17.13;;;7.95;;
11046;SDS011;5576;50.008;10.596;2023-03-02T15:24:21;12.57;;;7.93;;
11046;SDS011;5576;50.008;10.596;2023-03-02T15:26:48;14.75;;;8.07;;
11046;SDS011;5576;50.008;10.596;2023-03-02T15:29:14;15.13;;;8.27;;